West Brownsville, Pennsylvania
Current Conditions -  °F | °C
As of 10:35 AM on Wednesday 26 Nov 2014 (Local Time) from KAFJ Reporting Station
Overcast Overcast  
Wind Chill: 30°   Ceiling: 1500
Heat Index: 30°   Visibility: 0.75mi
Dew Point: 28°   Wind: 3mph
Humidity: 93%   Direction: 10°N
Pressure: 30.08"   Gusts: NA
Location:  40.0327°N, 79.9541°W
Report Text: KAFJ 261535Z 01003KT 3/4SM SCT009 OVC015 M01/M02 A3008 RMK AO1 P0001
Loading
Personal Weather Stations






























Interactive Weather Map New forecast layout! Learn more

10-Day Weather Forecast

Advertisements
Track Severe Weather on mobile